Time;durP1;ratioP1;P1;durP2;ratioP2;P2;SDS_P1;SDS_P2;PMS_P1;PMS_P2;Temp;Humidity;BMP_temperature;BMP_pressure;BME280_temperature;BME280_humidity;BME280_pressure;Samples;Min_cycle;Max_cycle;Signal;HPM_P1;HPM_P2
2021/01/20 00:00:52;;;;;;;50.65;22.75;;;;;;;-1.77;59.66;99753.94;4916330;29;20481;-78
2021/01/20 00:03:18;;;;;;;52.30;23.53;;;;;;;-1.75;59.94;99750.34;4913984;29;20055;-77
2021/01/20 00:05:44;;;;;;;44.03;20.70;;;;;;;-1.74;59.79;99749.34;4907891;29;20430;-78
2021/01/20 00:08:09;;;;;;;35.45;18.63;;;;;;;-1.70;59.73;99754.03;4917199;29;20039;-79
2021/01/20 00:10:35;;;;;;;51.17;19.63;;;;;;;-1.70;59.28;99748.00;4916069;29;20028;-78
2021/01/20 00:13:00;;;;;;;54.23;24.70;;;;;;;-1.68;59.38;99741.56;4916123;29;20038;-77
2021/01/20 00:15:26;;;;;;;46.45;22.35;;;;;;;-1.67;59.65;99743.22;4898314;29;20036;-79
2021/01/20 00:17:51;;;;;;;56.23;23.17;;;;;;;-1.67;59.52;99739.75;4924134;29;20016;-82
2021/01/20 00:20:17;;;;;;;38.13;17.10;;;;;;;-1.69;59.05;99742.56;4915289;29;20032;-78
2021/01/20 00:22:46;;;;;;;35.17;14.80;;;;;;;-1.70;59.51;99742.75;4916632;29;20503;-79
2021/01/20 00:25:11;;;;;;;31.85;18.58;;;;;;;-1.70;59.45;99740.13;4921963;29;20008;-80
2021/01/20 00:27:37;;;;;;;46.10;20.83;;;;;;;-1.72;59.48;99735.06;4907899;29;20115;-79
2021/01/20 00:30:08;;;;;;;37.90;17.47;;;;;;;-1.72;59.49;99731.63;4898641;29;20037;-78
2021/01/20 00:32:33;;;;;;;33.63;18.70;;;;;;;-1.73;59.12;99730.81;4912040;29;20152;-79
2021/01/20 00:34:58;;;;;;;45.80;20.52;;;;;;;-1.73;59.36;99735.22;4916366;29;20043;-77
2021/01/20 00:37:24;;;;;;;65.80;26.10;;;;;;;-1.74;59.16;99731.81;4910371;29;20037;-76
2021/01/20 00:39:49;;;;;;;102.30;39.23;;;;;;;-1.74;59.36;99733.63;4903478;29;20039;-81
2021/01/20 00:42:16;;;;;;;92.33;40.60;;;;;;;-1.77;59.84;99732.97;4918061;29;20069;-82
2021/01/20 00:44:43;;;;;;;115.55;49.83;;;;;;;-1.80;59.78;99741.19;4893457;29;20036;-80
2021/01/20 00:47:08;;;;;;;98.33;44.77;;;;;;;-1.83;59.98;99741.56;4915702;29;20398;-79
2021/01/20 00:49:37;;;;;;;99.10;45.50;;;;;;;-1.85;59.79;99745.34;4919244;29;20047;-83
2021/01/20 00:52:02;;;;;;;;;;;;;;;-1.92;59.74;99736.56;4920815;29;20055;-81
2021/01/20 00:54:28;;;;;;;103.20;42.90;;;;;;;-2.03;60.75;99738.59;4914742;29;20002;-79
2021/01/20 00:56:53;;;;;;;107.93;43.20;;;;;;;-2.15;60.71;99743.47;4914630;29;20031;-79
2021/01/20 01:02:56;;;;;;;71.00;31.75;;;;;;;-2.24;60.61;99754.19;4924008;29;20043;-82
2021/01/20 01:05:23;;;;;;;91.73;41.87;;;;;;;-2.27;61.15;99756.16;4923273;29;20048;-81
2021/01/20 01:07:48;;;;;;;122.37;48.90;;;;;;;-2.29;61.38;99752.06;4900903;29;20044;-80
2021/01/20 01:10:14;;;;;;;97.47;42.67;;;;;;;-2.32;61.92;99757.66;4915711;29;20549;-80
2021/01/20 01:12:39;;;;;;;91.85;38.70;;;;;;;-2.34;61.87;99749.97;4916404;29;20394;-79
2021/01/20 01:15:06;;;;;;;97.57;37.37;;;;;;;-2.37;61.46;99752.13;4906983;29;20077;-78
2021/01/20 01:20:46;;;;;;;82.23;37.33;;;;;;;-2.39;62.00;99751.47;4912907;29;20032;-83
2021/01/20 01:23:11;;;;;;;83.93;35.77;;;;;;;-2.40;61.62;99753.28;4863912;29;20507;-76
2021/01/20 01:25:37;;;;;;;65.67;31.03;;;;;;;-2.38;61.21;99753.09;4862136;29;20037;-76
2021/01/20 01:28:11;;;;;;;64.40;28.50;;;;;;;-2.37;61.52;99754.75;4862542;29;20025;-77
2021/01/20 01:30:36;;;;;;;69.77;28.53;;;;;;;-2.37;61.47;99758.16;4880058;29;20025;-78
2021/01/20 01:33:01;;;;;;;49.93;21.53;;;;;;;-2.37;61.08;99752.13;4863609;29;20474;-78
2021/01/20 01:35:27;;;;;;;44.13;18.63;;;;;;;-2.37;61.42;99758.16;4863842;29;20028;-79
2021/01/20 01:37:52;;;;;;;44.27;19.70;;;;;;;-2.34;60.93;99752.59;4862868;29;20774;-79
2021/01/20 01:40:18;;;;;;;56.40;20.07;;;;;;;-2.31;61.03;99759.28;4863112;29;20033;-80
2021/01/20 01:42:43;;;;;;;51.90;23.30;;;;;;;-2.31;60.88;99752.22;4864003;29;20033;-79
2021/01/20 01:45:09;;;;;;;53.23;22.77;;;;;;;-2.28;61.01;99748.47;4863513;29;20041;-78
2021/01/20 01:47:34;;;;;;;36.80;15.70;;;;;;;-2.26;60.66;99747.31;4863835;29;20037;-79
2021/01/20 01:50:38;;;;;;;32.73;15.47;;;;;;;-2.21;60.24;99748.56;4873958;29;20102;-82
2021/01/20 01:53:04;;;;;;;28.70;14.20;;;;;;;-2.20;60.00;99750.22;4868960;29;20053;-79
2021/01/20 01:55:31;;;;;;;25.77;14.87;;;;;;;-2.17;59.49;99747.22;4871682;29;20105;-78
2021/01/20 01:57:56;;;;;;;32.80;15.17;;;;;;;-2.16;60.28;99752.31;4870492;29;20040;-77
2021/01/20 02:00:22;;;;;;;30.08;15.40;;;;;;;-2.16;59.85;99751.47;4862087;29;20525;-78
2021/01/20 02:02:49;;;;;;;48.72;19.75;;;;;;;-2.15;59.73;99747.88;4862184;29;20503;-77
2021/01/20 02:05:14;;;;;;;39.60;17.60;;;;;;;-2.15;59.53;99751.31;4862489;29;20113;-78
2021/01/20 02:19:47;;;;;;;34.80;14.73;;;;;;;-2.16;59.99;99751.47;4913845;29;20066;-83
2021/01/20 02:22:27;;;;;;;37.83;16.03;;;;;;;-2.17;59.62;99742.81;4901883;29;20061;-81
2021/01/20 02:25:08;;;;;;;26.97;13.67;;;;;;;-2.20;59.66;99743.16;4908596;29;20074;-81
2021/01/20 02:27:56;;;;;;;35.90;17.30;;;;;;;-2.22;59.45;99734.66;4894392;29;20024;-81
2021/01/20 02:31:01;;;;;;;42.57;17.77;;;;;;;-2.26;59.39;99726.34;4891561;29;20068;-83
2021/01/20 02:33:31;;;;;;;43.63;20.52;;;;;;;-2.29;59.66;99718.00;4881401;29;20041;-81
2021/01/20 02:36:00;;;;;;;45.37;19.80;;;;;;;-2.32;60.19;99719.19;4877801;29;20040;-81
2021/01/20 02:38:26;;;;;;;45.27;21.53;;;;;;;-2.34;59.59;99715.13;4877528;29;20490;-79
2021/01/20 02:40:52;;;;;;;45.13;19.23;;;;;;;-2.38;59.71;99706.78;4877307;29;20124;-81
2021/01/20 02:43:22;;;;;;;50.27;22.30;;;;;;;-2.38;59.78;99712.03;4877506;29;20119;-79
2021/01/20 02:45:48;;;;;;;48.27;23.93;;;;;;;-2.37;60.51;99716.25;4874673;29;20096;-80
2021/01/20 02:48:13;;;;;;;61.37;31.30;;;;;;;-2.36;60.26;99712.66;4877288;29;20139;-81
2021/01/20 02:50:39;;;;;;;52.40;23.30;;;;;;;-2.35;60.20;99716.09;4878804;29;20044;-81
2021/01/20 02:53:20;;;;;;;49.33;23.83;;;;;;;-2.37;59.88;99710.22;4877600;29;20033;-79
2021/01/20 02:55:56;;;;;;;53.30;24.00;;;;;;;-2.36;60.21;99703.97;4876560;29;20105;-80
2021/01/20 02:58:27;;;;;;;51.13;25.00;;;;;;;-2.37;59.98;99707.59;4877697;29;20443;-81
2021/01/20 03:00:55;;;;;;;35.90;17.93;;;;;;;-2.42;60.16;99705.47;4880899;29;20044;-79
2021/01/20 03:03:21;;;;;;;35.83;18.47;;;;;;;-2.38;60.13;99716.44;4877104;29;20060;-81
2021/01/20 03:05:49;;;;;;;63.47;29.70;;;;;;;-2.39;60.17;99713.00;4878051;29;20036;-81
2021/01/20 03:08:17;;;;;;;59.03;29.00;;;;;;;-2.37;60.32;99725.94;4878382;29;20040;-82
2021/01/20 03:10:42;;;;;;;76.93;32.00;;;;;;;-2.39;60.28;99731.34;4865460;29;20041;-81
2021/01/20 03:13:10;;;;;;;65.00;28.90;;;;;;;-2.38;60.36;99729.53;4877999;29;20041;-82
2021/01/20 03:15:42;;;;;;;66.03;28.30;;;;;;;-2.38;60.90;99724.28;4880036;29;20040;-80
2021/01/20 03:18:08;;;;;;;63.97;26.87;;;;;;;-2.40;60.52;99727.09;4859443;29;20485;-81
2021/01/20 03:20:55;;;;;;;82.20;35.17;;;;;;;-2.42;61.06;99726.44;4886492;29;20135;-83
2021/01/20 03:23:20;;;;;;;83.87;33.27;;;;;;;-2.45;60.75;99730.22;4892620;29;20044;-81
2021/01/20 03:25:46;;;;;;;86.13;37.30;;;;;;;-2.49;61.28;99728.97;4879858;29;20104;-82
2021/01/20 03:28:12;;;;;;;88.27;40.00;;;;;;;-2.51;61.36;99732.75;4883785;29;20033;-82
2021/01/20 03:30:38;;;;;;;85.17;38.33;;;;;;;-2.57;61.36;99729.81;4881670;29;20044;-82
2021/01/20 03:33:04;;;;;;;92.73;42.13;;;;;;;-2.63;61.96;99735.72;4897519;29;20124;-80
2021/01/20 03:35:29;;;;;;;100.33;43.17;;;;;;;-2.68;61.72;99727.59;4893789;29;20036;-80
2021/01/20 03:37:55;;;;;;;99.07;42.33;;;;;;;-2.72;61.92;99733.34;4888797;29;20081;-80
2021/01/20 03:40:20;;;;;;;83.13;34.93;;;;;;;-2.76;62.16;99735.47;4876507;29;20032;-81
2021/01/20 03:42:46;;;;;;;84.90;35.20;;;;;;;-2.78;62.46;99732.25;4877248;29;20455;-80
2021/01/20 03:45:13;;;;;;;73.27;32.97;;;;;;;-2.80;62.35;99737.63;4889927;29;20058;-83
2021/01/20 03:48:07;;;;;;;42.70;21.77;;;;;;;-2.81;62.39;99738.59;4896824;29;20020;-85
2021/01/20 03:53:26;;;;;;;71.63;30.23;;;;;;;-2.84;62.37;99746.00;5660043;23;20060;-80
2021/01/20 03:58:44;;;;;;;;;;;;;;;-2.80;61.88;99740.25;5563444;23;20064;-83
2021/01/20 04:03:45;;;;;;;51.60;24.93;;;;;;;-2.76;62.30;99735.47;5273737;23;20056;-80
2021/01/20 04:06:11;;;;;;;56.10;26.07;;;;;;;-2.77;62.05;99733.84;4908030;29;20043;-78
2021/01/20 04:14:35;;;;;;;80.97;36.70;;;;;;;-2.77;61.97;99732.06;4931645;23;20269;-79
2021/01/20 04:17:00;;;;;;;50.53;23.33;;;;;;;-2.67;61.65;99744.09;4895309;29;20135;-79
2021/01/20 04:19:26;;;;;;;51.47;19.17;;;;;;;-2.65;61.42;99750.00;4894061;29;20056;-78
2021/01/20 04:21:51;;;;;;;38.83;18.17;;;;;;;-2.63;61.19;99745.41;4894257;29;20029;-78
2021/01/20 04:24:17;;;;;;;51.43;22.00;;;;;;;-2.60;61.26;99745.03;4893495;29;20530;-79
2021/01/20 04:26:44;;;;;;;46.13;20.80;;;;;;;-2.59;61.08;99757.16;4894441;29;20032;-77
2021/01/20 04:29:11;;;;;;;49.80;20.60;;;;;;;-2.58;61.02;99754.34;4894135;29;20111;-78
2021/01/20 04:31:38;;;;;;;48.10;21.73;;;;;;;-2.55;61.07;99755.00;4894203;29;20039;-78
2021/01/20 04:34:03;;;;;;;51.23;24.57;;;;;;;-2.55;61.04;99760.25;4893690;29;20040;-78
2021/01/20 04:36:29;;;;;;;52.53;23.10;;;;;;;-2.56;61.30;99754.22;4894543;29;20409;-77
2021/01/20 04:38:54;;;;;;;42.00;21.97;;;;;;;-2.55;60.93;99758.47;4894931;29;20040;-76
2021/01/20 04:41:20;;;;;;;49.80;23.03;;;;;;;-2.57;60.98;99758.59;4879167;29;20032;-79
2021/01/20 04:52:21;;;;;;;54.03;24.17;;;;;;;-2.57;61.24;99773.53;4895981;29;20055;-79
2021/01/20 04:55:37;;;;;;;53.07;27.50;;;;;;;-2.59;60.97;99762.41;4883362;29;20561;-82
2021/01/20 04:58:03;;;;;;;51.10;23.83;;;;;;;-2.60;61.13;99763.38;4895742;29;20036;-79
2021/01/20 05:00:28;;;;;;;57.10;27.57;;;;;;;-2.60;61.24;99760.75;4877704;29;20116;-79
2021/01/20 05:03:01;;;;;;;68.57;29.63;;;;;;;-2.61;61.74;99753.91;4880136;29;20036;-81
2021/01/20 05:05:58;;;;;;;81.33;34.70;;;;;;;-2.63;61.91;99758.50;4895873;29;20027;-82
2021/01/20 05:14:47;;;;;;;95.57;38.00;;;;;;;-2.75;61.79;99756.28;5138206;23;20072;-81
2021/01/20 05:17:13;;;;;;;;;;;;;;;-2.75;61.71;99760.69;4887324;29;20091;-81
2021/01/20 05:19:52;;;;;;;80.70;34.87;;;;;;;-2.77;62.32;99765.25;4886947;29;19923;-80
2021/01/20 05:22:36;;;;;;;84.45;37.85;;;;;;;-2.78;62.42;99772.31;4878705;29;20099;-80
2021/01/20 05:27:37;;;;;;;76.50;33.10;;;;;;;-2.78;62.46;99772.31;5154180;23;20478;-79
2021/01/20 05:33:00;;;;;;;72.97;33.73;;;;;;;-2.75;62.24;99773.78;4927203;23;20120;-78
2021/01/20 05:35:25;;;;;;;87.30;35.10;;;;;;;-2.75;62.19;99774.59;4881365;29;20040;-76
2021/01/20 05:38:01;;;;;;;75.40;32.43;;;;;;;-2.71;61.89;99772.47;4884208;29;20146;-80
2021/01/20 05:40:26;;;;;;;83.50;32.60;;;;;;;-2.68;62.09;99779.16;4886136;29;20028;-77
2021/01/20 05:42:53;;;;;;;65.57;33.30;;;;;;;-2.66;61.83;99783.22;4881305;29;20033;-77
2021/01/20 05:45:23;;;;;;;101.80;45.77;;;;;;;-2.64;62.09;99778.63;4876456;29;20173;-77
2021/01/20 05:48:09;;;;;;;70.07;32.83;;;;;;;-2.61;61.71;99780.09;4882868;29;20056;-78
2021/01/20 05:50:53;;;;;;;72.17;29.67;;;;;;;-2.58;61.53;99784.97;4881716;29;20043;-78
2021/01/20 05:53:18;;;;;;;48.97;24.93;;;;;;;-2.49;62.24;99788.38;4881940;29;20039;-78
2021/01/20 05:56:00;;;;;;;38.20;18.77;;;;;;;-2.43;61.28;99785.06;4898866;29;20037;-78
2021/01/20 05:58:37;;;;;;;22.03;12.97;;;;;;;-2.33;60.52;99792.69;4882066;29;20043;-78
2021/01/20 06:01:10;;;;;;;35.27;17.50;;;;;;;-2.24;60.85;99780.38;4881814;29;20487;-78
2021/01/20 06:03:37;;;;;;;37.60;17.83;;;;;;;-2.18;59.69;99782.31;4881632;29;20036;-78
2021/01/20 06:06:05;;;;;;;58.83;22.97;;;;;;;-2.12;59.41;99795.50;4881948;29;20184;-78
2021/01/20 06:08:36;;;;;;;45.45;24.50;;;;;;;-2.06;60.02;99791.38;4882034;29;20455;-78
2021/01/20 06:11:03;;;;;;;69.03;34.00;;;;;;;-2.01;59.89;99798.72;4881752;29;20040;-78
2021/01/20 06:13:28;;;;;;;60.63;28.53;;;;;;;-1.97;59.49;99798.19;4881965;29;20482;-77
2021/01/20 06:15:58;;;;;;;92.80;44.70;;;;;;;-1.92;59.45;99800.28;4881061;29;20029;-79
2021/01/20 06:18:27;;;;;;;95.20;40.37;;;;;;;-1.89;60.14;99820.09;4881717;29;20115;-79
2021/01/20 06:20:53;;;;;;;96.23;43.83;;;;;;;-1.90;59.20;99816.66;4880997;29;20032;-79
2021/01/20 06:23:26;;;;;;;100.57;46.92;;;;;;;-1.91;59.64;99820.28;4881491;29;20052;-79
2021/01/20 06:26:01;;;;;;;129.77;59.87;;;;;;;-1.88;59.91;99827.81;4880447;29;20057;-79
2021/01/20 06:28:27;;;;;;;105.10;50.77;;;;;;;-1.83;59.36;99816.75;4881740;29;20084;-79
2021/01/20 06:30:54;;;;;;;113.22;52.40;;;;;;;-1.81;60.04;99826.09;4881545;29;20032;-79
2021/01/20 06:33:21;;;;;;;89.10;45.20;;;;;;;-1.79;59.69;99833.78;4882001;29;20478;-78
2021/01/20 06:35:51;;;;;;;86.70;38.77;;;;;;;-1.71;59.52;99835.53;4882943;29;20087;-78
2021/01/20 06:38:28;;;;;;;49.07;23.23;;;;;;;-1.66;58.64;99835.81;4886574;29;20032;-78
2021/01/20 06:40:59;;;;;;;72.40;29.58;;;;;;;-1.57;58.69;99836.59;4885840;29;20028;-79
2021/01/20 06:43:35;;;;;;;88.33;41.30;;;;;;;-1.49;58.89;99846.97;4881636;29;20621;-79
2021/01/20 06:46:20;;;;;;;83.63;38.87;;;;;;;-1.42;59.13;99850.53;4880369;29;20076;-79
2021/01/20 06:48:55;;;;;;;70.20;37.10;;;;;;;-1.32;59.11;99852.91;4880628;29;20033;-79
2021/01/20 06:51:25;;;;;;;96.77;44.60;;;;;;;-1.24;59.15;99857.28;4880353;29;20029;-78
2021/01/20 06:54:18;;;;;;;94.00;47.13;;;;;;;-1.18;59.29;99859.19;4880311;29;20109;-79
2021/01/20 06:56:50;;;;;;;114.20;51.33;;;;;;;-1.14;60.09;99856.00;4880181;29;20041;-79
2021/01/20 06:59:23;;;;;;;117.23;54.23;;;;;;;-1.07;60.34;99857.94;4879762;29;20032;-79
2021/01/20 07:02:04;;;;;;;113.82;54.30;;;;;;;-1.02;60.53;99866.88;4880049;29;20059;-79
2021/01/20 07:04:38;;;;;;;103.38;55.20;;;;;;;-0.99;60.75;99868.34;4879965;29;20032;-79
2021/01/20 07:07:07;;;;;;;99.00;50.77;;;;;;;-1.00;60.33;99864.91;4879883;29;20417;-79
2021/01/20 07:09:50;;;;;;;;;;;;;;;-0.98;59.01;99862.94;4880389;29;20036;-80
2021/01/20 07:12:22;;;;;;;139.75;61.95;;;;;;;-0.94;58.81;99858.13;4879858;29;20369;-79
2021/01/20 07:14:50;;;;;;;127.82;59.38;;;;;;;-0.89;59.26;99860.19;4879929;29;20135;-79
2021/01/20 07:17:17;;;;;;;104.32;45.80;;;;;;;-0.79;58.72;99854.66;4879542;29;20119;-79
2021/01/20 07:19:47;;;;;;;90.82;44.38;;;;;;;-0.72;58.45;99868.72;4879822;29;20035;-79
2021/01/20 07:22:13;;;;;;;96.93;43.22;;;;;;;-0.62;58.86;99868.44;4879633;29;20032;-79
2021/01/20 07:24:39;;;;;;;102.15;49.08;;;;;;;-0.54;58.20;99866.56;4879548;29;20024;-79
2021/01/20 07:27:06;;;;;;;97.25;45.92;;;;;;;-0.41;57.84;99875.59;4879399;29;20045;-79
2021/01/20 07:29:32;;;;;;;83.38;40.78;;;;;;;-0.33;57.01;99878.09;4879629;29;20055;-80
2021/01/20 07:31:59;;;;;;;105.50;46.58;;;;;;;-0.25;57.18;99877.19;4879295;29;20056;-79
2021/01/20 07:34:43;;;;;;;103.35;50.78;;;;;;;-0.18;56.75;99876.25;4879648;29;20064;-79
2021/01/20 07:37:17;;;;;;;140.38;66.60;;;;;;;-0.13;57.06;99869.66;4879071;29;20032;-79
2021/01/20 07:39:44;;;;;;;106.68;52.45;;;;;;;0.02;56.89;99872.22;4879456;29;20123;-79
2021/01/20 07:42:09;;;;;;;90.97;43.03;;;;;;;0.11;56.17;99868.47;4879219;29;20028;-79
2021/01/20 07:44:44;;;;;;;80.00;37.42;;;;;;;0.21;55.76;99866.34;4879363;29;20043;-79
2021/01/20 07:47:10;;;;;;;93.10;43.58;;;;;;;0.34;56.21;99863.03;4879287;29;20032;-79
2021/01/20 07:49:36;;;;;;;127.13;52.58;;;;;;;0.46;56.46;99864.16;4879877;29;20029;-79
2021/01/20 07:52:03;;;;;;;102.05;51.05;;;;;;;0.56;55.77;99855.94;4879381;29;20048;-79
2021/01/20 07:54:35;;;;;;;141.13;60.45;;;;;;;0.69;56.15;99857.06;4879436;29;20075;-79
2021/01/20 07:57:00;;;;;;;130.77;61.58;;;;;;;0.79;55.89;99860.16;4879429;29;20049;-79
2021/01/20 07:59:25;;;;;;;137.13;63.45;;;;;;;0.88;55.95;99866.09;4879568;29;20403;-79
2021/01/20 08:01:51;;;;;;;116.07;58.67;;;;;;;0.93;55.59;99861.88;4879781;29;20028;-77
2021/01/20 08:04:23;;;;;;;120.07;56.35;;;;;;;0.95;55.27;99865.16;4879652;29;20025;-79
2021/01/20 08:06:49;;;;;;;92.30;44.78;;;;;;;1.01;54.75;99866.19;4879592;29;20067;-79
2021/01/20 08:09:15;;;;;;;73.85;33.33;;;;;;;1.02;54.06;99864.38;4880014;29;20470;-79
2021/01/20 08:11:43;;;;;;;70.10;31.20;;;;;;;1.07;54.03;99861.97;4879816;29;20036;-79
2021/01/20 08:14:11;;;;;;;48.80;25.40;;;;;;;1.09;54.56;99873.13;4879371;29;20025;-79
2021/01/20 08:16:38;;;;;;;44.22;22.52;;;;;;;1.14;55.19;99870.72;4879476;29;20036;-79
2021/01/20 08:19:05;;;;;;;38.85;21.33;;;;;;;1.16;54.81;99867.88;4878941;29;20100;-79
2021/01/20 08:21:31;;;;;;;50.58;24.17;;;;;;;1.22;54.67;99860.03;4880136;29;20112;-80
2021/01/20 08:24:00;;;;;;;51.05;22.58;;;;;;;1.34;54.57;99864.75;4879468;29;20032;-79
2021/01/20 08:26:29;;;;;;;41.47;18.60;;;;;;;1.40;54.78;99870.06;4880060;29;20029;-79
2021/01/20 08:29:05;;;;;;;34.58;18.25;;;;;;;1.53;53.81;99860.59;4880068;29;20071;-79
2021/01/20 08:31:31;;;;;;;39.40;19.17;;;;;;;1.60;53.95;99861.44;4880316;29;20049;-79
2021/01/20 08:34:22;;;;;;;35.85;16.27;;;;;;;1.73;53.61;99872.03;4881118;29;20042;-79
2021/01/20 08:36:55;;;;;;;28.17;11.68;;;;;;;1.86;53.17;99881.00;4880006;29;20546;-79
2021/01/20 08:39:21;;;;;;;28.85;13.27;;;;;;;2.00;53.40;99873.94;4862143;29;20048;-79
2021/01/20 08:42:14;;;;;;;35.78;16.65;;;;;;;2.18;53.15;99883.94;4874649;29;20132;-79
2021/01/20 08:44:40;;;;;;;31.38;14.18;;;;;;;2.34;51.42;99880.09;4864051;29;20032;-79
2021/01/20 08:47:08;;;;;;;29.38;13.55;;;;;;;2.52;51.41;99866.31;4867201;29;20044;-80
2021/01/20 08:49:33;;;;;;;29.30;13.68;;;;;;;2.69;50.91;99856.94;4868815;29;20151;-79
2021/01/20 08:51:59;;;;;;;25.23;12.98;;;;;;;2.86;49.44;99864.47;4877053;29;20566;-79
2021/01/20 08:54:25;;;;;;;27.70;12.98;;;;;;;2.99;49.21;99863.63;4862740;29;20040;-79
2021/01/20 08:56:52;;;;;;;19.13;9.73;;;;;;;3.14;48.78;99860.78;4862691;29;20392;-79
2021/01/20 08:59:17;;;;;;;20.63;11.48;;;;;;;3.25;48.31;99859.31;4859916;29;20041;-80
2021/01/20 09:01:43;;;;;;;23.08;10.93;;;;;;;3.33;48.16;99851.97;4891959;29;20445;-79
2021/01/20 09:04:08;;;;;;;16.17;8.85;;;;;;;3.48;48.42;99861.50;4866495;29;20032;-80
2021/01/20 09:06:34;;;;;;;23.25;9.73;;;;;;;3.54;47.94;99865.94;4880493;29;20032;-78
2021/01/20 09:09:00;;;;;;;24.02;11.27;;;;;;;3.65;48.28;99860.00;4880182;29;20550;-77
2021/01/20 09:11:26;;;;;;;20.08;9.23;;;;;;;3.74;48.12;99863.22;4879535;29;20581;-80
2021/01/20 09:13:54;;;;;;;17.77;9.05;;;;;;;3.84;47.68;99860.09;4879899;29;20062;-80
2021/01/20 09:16:29;;;;;;;18.33;8.60;;;;;;;3.90;47.13;99858.47;4879845;29;20487;-78
2021/01/20 09:18:56;;;;;;;18.85;8.85;;;;;;;3.94;47.01;99854.34;4882461;29;20034;-78
2021/01/20 09:21:22;;;;;;;16.98;8.75;;;;;;;3.97;47.47;99838.88;4875081;29;20036;-78
2021/01/20 09:23:51;;;;;;;13.93;7.30;;;;;;;3.98;46.85;99835.19;4872382;29;20454;-78
2021/01/20 09:26:16;;;;;;;11.70;7.32;;;;;;;4.02;46.77;99835.59;4881407;29;20033;-78
2021/01/20 09:28:42;;;;;;;13.90;6.47;;;;;;;4.06;45.80;99831.47;4880412;29;20039;-77
2021/01/20 09:31:07;;;;;;;11.13;6.95;;;;;;;4.08;46.17;99828.63;4883149;29;20056;-78
2021/01/20 09:33:33;;;;;;;16.88;8.18;;;;;;;4.11;46.23;99834.31;4882067;29;20037;-78
2021/01/20 09:35:59;;;;;;;15.98;7.82;;;;;;;4.11;45.90;99820.25;4883315;29;20029;-80
2021/01/20 09:38:25;;;;;;;20.52;8.30;;;;;;;4.16;46.03;99810.66;4884704;29;20028;-78
2021/01/20 09:40:50;;;;;;;14.30;7.45;;;;;;;4.22;45.93;99808.97;4884319;29;20036;-78
2021/01/20 09:43:16;;;;;;;18.80;8.18;;;;;;;4.28;46.08;99807.31;4883791;29;20086;-78
2021/01/20 09:45:43;;;;;;;20.92;9.18;;;;;;;4.33;46.23;99808.28;4882248;29;20034;-78
2021/01/20 09:48:09;;;;;;;16.75;9.50;;;;;;;4.39;45.92;99792.56;4881513;29;20480;-78
2021/01/20 09:50:35;;;;;;;20.67;10.35;;;;;;;4.46;45.24;99778.22;4882746;29;20096;-78
2021/01/20 09:53:02;;;;;;;16.35;8.85;;;;;;;4.50;45.20;99768.00;4881833;29;20039;-79
2021/01/20 09:55:27;;;;;;;20.65;11.68;;;;;;;4.61;45.43;99779.72;4882729;29;20063;-78
2021/01/20 09:57:53;;;;;;;19.38;10.27;;;;;;;4.65;44.65;99767.66;4883101;29;20513;-79
2021/01/20 10:00:18;;;;;;;19.83;9.57;;;;;;;4.70;44.36;99767.84;4882100;29;20040;-79
2021/01/20 10:02:44;;;;;;;23.77;10.00;;;;;;;4.76;44.82;99768.78;4882199;29;20115;-79
2021/01/20 10:05:10;;;;;;;20.45;8.98;;;;;;;4.85;43.79;99758.72;4884078;29;20067;-79
2021/01/20 10:07:37;;;;;;;22.52;9.75;;;;;;;4.92;43.31;99759.44;4883444;29;20159;-79
2021/01/20 10:10:07;;;;;;;17.85;9.00;;;;;;;5.02;42.32;99756.28;4883885;29;20096;-79
2021/01/20 10:12:32;;;;;;;14.90;8.82;;;;;;;5.11;42.52;99757.59;4882628;29;20040;-79
2021/01/20 10:14:58;;;;;;;17.70;8.40;;;;;;;5.16;41.85;99747.13;4881365;29;20037;-79
2021/01/20 10:17:23;;;;;;;16.85;7.63;;;;;;;5.22;41.63;99740.94;4882275;29;20043;-79
2021/01/20 10:19:49;;;;;;;13.70;7.97;;;;;;;5.29;41.54;99736.34;4884315;29;20461;-79
2021/01/20 10:22:14;;;;;;;14.13;7.05;;;;;;;5.38;41.37;99741.34;4886283;29;20550;-79
2021/01/20 10:24:40;;;;;;;16.73;7.53;;;;;;;5.45;40.71;99734.13;4885232;29;20028;-79
2021/01/20 10:27:05;;;;;;;16.75;9.43;;;;;;;5.52;40.57;99736.69;4884402;29;20171;-79
2021/01/20 10:29:31;;;;;;;20.95;9.95;;;;;;;5.59;40.72;99740.03;4885790;29;20123;-79
2021/01/20 10:31:56;;;;;;;20.00;9.52;;;;;;;5.66;41.32;99732.00;4884997;29;20080;-79
2021/01/20 10:34:22;;;;;;;17.17;8.82;;;;;;;5.75;40.42;99728.00;4884006;29;20466;-79
2021/01/20 10:36:47;;;;;;;19.00;9.18;;;;;;;5.84;39.83;99725.81;4886353;29;20033;-78
2021/01/20 10:39:13;;;;;;;17.02;7.88;;;;;;;5.91;40.13;99721.22;4884811;29;20048;-79
2021/01/20 10:41:38;;;;;;;17.15;8.73;;;;;;;5.99;39.46;99717.44;4886723;29;20036;-78
2021/01/20 10:44:05;;;;;;;21.90;9.13;;;;;;;6.00;38.80;99719.84;4885393;29;20398;-79
2021/01/20 10:46:31;;;;;;;15.25;8.25;;;;;;;6.02;38.94;99712.47;4885259;29;20040;-79
2021/01/20 10:48:58;;;;;;;17.17;9.27;;;;;;;6.04;38.84;99715.72;4886629;29;20039;-79
2021/01/20 10:51:25;;;;;;;16.73;8.82;;;;;;;6.07;38.67;99709.16;4886138;29;20142;-79
2021/01/20 10:53:50;;;;;;;17.20;9.75;;;;;;;6.11;38.12;99707.63;4886029;29;20129;-78
2021/01/20 10:56:16;;;;;;;21.08;9.73;;;;;;;6.12;38.54;99711.13;4886761;29;20068;-78
2021/01/20 10:58:42;;;;;;;20.00;10.52;;;;;;;6.17;38.45;99712.03;4885819;29;20033;-79
2021/01/20 11:01:08;;;;;;;21.38;10.25;;;;;;;6.22;38.04;99703.38;4884909;29;20024;-79
2021/01/20 11:03:34;;;;;;;18.60;9.88;;;;;;;6.25;37.83;99706.38;4885742;29;20043;-79
2021/01/20 11:05:59;;;;;;;20.92;11.55;;;;;;;6.27;38.14;99703.47;4885309;29;20037;-78
2021/01/20 11:08:25;;;;;;;21.60;10.02;;;;;;;6.32;37.72;99706.25;4886445;29;20033;-78
2021/01/20 11:10:51;;;;;;;16.42;8.38;;;;;;;6.33;37.46;99699.09;4882716;29;20047;-77
2021/01/20 11:13:17;;;;;;;18.65;10.73;;;;;;;6.35;37.09;99691.72;4881699;29;20047;-80
2021/01/20 11:15:47;;;;;;;21.50;11.27;;;;;;;6.34;37.87;99695.41;4881504;29;20032;-78
2021/01/20 11:18:14;;;;;;;22.73;10.02;;;;;;;6.40;37.56;99689.97;4880165;29;20036;-78
2021/01/20 11:20:40;;;;;;;18.23;8.35;;;;;;;6.42;36.96;99695.06;4880560;29;20066;-78
2021/01/20 11:23:07;;;;;;;18.05;9.98;;;;;;;6.47;37.44;99689.03;4880925;29;20533;-78
2021/01/20 11:25:32;;;;;;;11.98;7.85;;;;;;;6.52;36.87;99689.97;4881161;29;20088;-78
2021/01/20 11:27:59;;;;;;;16.00;8.82;;;;;;;6.56;36.75;99685.00;4880771;29;20455;-78
2021/01/20 11:30:25;;;;;;;10.48;6.80;;;;;;;6.60;36.30;99682.69;4880142;29;20127;-77
2021/01/20 11:32:51;;;;;;;11.70;6.75;;;;;;;6.64;36.18;99673.19;4880758;29;20556;-80
2021/01/20 11:35:16;;;;;;;9.90;6.55;;;;;;;6.68;35.95;99677.00;4880224;29;20060;-78
2021/01/20 11:37:42;;;;;;;15.27;6.70;;;;;;;6.73;35.96;99674.44;4880982;29;20084;-80
2021/01/20 11:40:08;;;;;;;13.70;7.97;;;;;;;6.77;35.89;99674.78;4880189;29;20032;-78
2021/01/20 11:42:34;;;;;;;15.93;10.23;;;;;;;6.83;35.89;99674.63;4880103;29;20036;-78
2021/01/20 11:45:00;;;;;;;19.13;9.48;;;;;;;6.86;35.45;99670.69;4880375;29;20032;-78
2021/01/20 11:47:26;;;;;;;20.10;10.48;;;;;;;6.88;35.61;99661.47;4880065;29;20036;-78
2021/01/20 11:49:51;;;;;;;22.92;12.52;;;;;;;6.97;35.43;99663.72;4881815;29;20029;-78
2021/01/20 11:52:21;;;;;;;17.25;10.65;;;;;;;6.97;35.43;99658.41;4881787;29;20497;-78
2021/01/20 11:54:48;;;;;;;16.92;9.05;;;;;;;6.98;35.10;99660.03;4898353;29;20036;-80
2021/01/20 11:57:14;;;;;;;20.63;9.45;;;;;;;7.00;35.73;99664.06;4897438;29;20036;-79
2021/01/20 11:59:40;;;;;;;19.77;9.52;;;;;;;7.07;35.43;99663.13;4881723;29;20512;-79
2021/01/20 12:02:07;;;;;;;15.95;7.57;;;;;;;7.13;35.39;99664.81;4881713;29;20025;-79
2021/01/20 12:04:33;;;;;;;14.75;7.55;;;;;;;7.13;35.04;99662.16;4881332;29;20051;-79
2021/01/20 12:06:59;;;;;;;17.08;8.68;;;;;;;7.18;35.56;99659.63;4880998;29;20486;-79
2021/01/20 12:09:24;;;;;;;19.52;8.00;;;;;;;7.23;35.82;99667.69;4882232;29;20033;-80
2021/01/20 12:11:50;;;;;;;8.27;5.93;;;;;;;7.29;35.08;99663.28;4881614;29;20111;-79
2021/01/20 12:14:15;;;;;;;9.73;6.18;;;;;;;7.34;34.92;99653.50;4882183;29;20037;-79
2021/01/20 12:16:41;;;;;;;15.75;7.93;;;;;;;7.36;34.15;99659.41;4879981;29;20111;-79
2021/01/20 12:19:07;;;;;;;19.15;8.43;;;;;;;7.43;34.98;99664.56;4881078;29;20136;-79
2021/01/20 12:21:33;;;;;;;16.80;7.22;;;;;;;7.47;33.72;99663.06;4880406;29;20040;-80